createdAt,value
2019-04-07T00:00:56.348Z,11.73
2019-04-07T00:01:56.019Z,11.73
2019-04-07T00:02:55.803Z,11.74
2019-04-07T00:03:55.926Z,11.71
2019-04-07T00:04:55.818Z,11.76
2019-04-07T00:05:55.789Z,11.74
2019-04-07T00:06:56.089Z,11.69
2019-04-07T00:07:55.743Z,11.70
2019-04-07T00:08:55.760Z,11.70
2019-04-07T00:09:55.887Z,11.66
2019-04-07T00:10:55.728Z,11.66
2019-04-07T00:11:56.226Z,11.69
2019-04-07T00:12:55.714Z,11.61
2019-04-07T00:13:55.703Z,11.70
2019-04-07T00:14:56.213Z,11.61
2019-04-07T00:15:55.721Z,11.61
2019-04-07T00:16:55.877Z,11.61
2019-04-07T00:17:55.636Z,11.59
2019-04-07T00:18:55.698Z,11.56
2019-04-07T00:19:55.740Z,11.55
2019-04-07T00:20:55.607Z,11.48
2019-04-07T00:21:55.767Z,11.48
2019-04-07T00:22:55.581Z,11.43
2019-04-07T00:23:56.150Z,11.43
2019-04-07T00:24:55.632Z,11.37
2019-04-07T00:25:55.552Z,11.34
2019-04-07T00:26:55.676Z,11.34
2019-04-07T00:27:55.557Z,11.33
2019-04-07T00:28:55.520Z,11.33
2019-04-07T00:29:55.513Z,11.34
2019-04-07T00:30:55.520Z,11.28
2019-04-07T00:31:55.763Z,11.23
2019-04-07T00:32:55.484Z,11.27
2019-04-07T00:33:55.498Z,11.33
2019-04-07T00:34:55.460Z,11.22
2019-04-07T00:35:55.877Z,11.34
2019-04-07T00:36:55.710Z,11.27
2019-04-07T00:37:55.560Z,11.28
2019-04-07T00:38:56.185Z,11.28
2019-04-07T00:39:55.422Z,11.23
2019-04-07T00:40:55.562Z,11.23
2019-04-07T00:41:55.370Z,11.23
2019-04-07T00:42:55.549Z,11.20
2019-04-07T00:43:56.124Z,11.18
2019-04-07T00:44:55.436Z,11.20
2019-04-07T00:45:55.890Z,11.16
2019-04-07T00:46:55.326Z,11.16
2019-04-07T00:47:55.920Z,11.20
2019-04-07T00:48:56.197Z,11.22
2019-04-07T00:49:55.594Z,11.11
2019-04-07T00:50:55.797Z,11.13
2019-04-07T00:51:55.262Z,11.16
2019-04-07T00:52:55.485Z,11.13
2019-04-07T00:53:55.263Z,11.09
2019-04-07T00:54:55.489Z,11.11
2019-04-07T00:55:55.227Z,11.15
2019-04-07T00:56:55.646Z,11.16
2019-04-07T00:57:55.195Z,11.11
2019-04-07T00:58:55.217Z,11.11
2019-04-07T00:59:55.172Z,11.15
2019-04-07T01:00:55.169Z,11.15
2019-04-07T01:01:55.284Z,11.11
2019-04-07T01:02:55.201Z,11.08
2019-04-07T01:03:55.661Z,11.09
2019-04-07T01:04:55.118Z,11.08
2019-04-07T01:05:55.369Z,11.04
2019-04-07T01:06:55.111Z,11.08
2019-04-07T01:07:55.264Z,11.08
2019-04-07T01:08:55.267Z,11.05
2019-04-07T01:09:55.288Z,11.09
2019-04-07T01:10:55.050Z,11.08
2019-04-07T01:11:55.038Z,11.04
2019-04-07T01:12:55.575Z,11.04
2019-04-07T01:13:55.518Z,11.05
2019-04-07T01:14:55.402Z,11.03
2019-04-07T01:15:55.007Z,11.09
2019-04-07T01:16:54.984Z,11.13
2019-04-07T01:17:55.016Z,11.15
2019-04-07T01:18:54.987Z,11.13
2019-04-07T01:19:55.077Z,11.12
2019-04-07T01:20:54.945Z,11.05
2019-04-07T01:21:54.934Z,11.08
2019-04-07T01:22:55.239Z,11.05
2019-04-07T01:23:54.914Z,11.12
2019-04-07T01:24:54.920Z,11.05
2019-04-07T01:25:55.197Z,11.09
2019-04-07T01:26:54.889Z,11.04
2019-04-07T01:27:55.461Z,11.09
2019-04-07T01:28:55.268Z,11.09
2019-04-07T01:29:55.280Z,11.08
2019-04-07T01:30:54.832Z,11.13
2019-04-07T01:31:54.840Z,11.04
2019-04-07T01:32:54.840Z,11.05
2019-04-07T01:33:55.332Z,10.98
2019-04-07T01:34:54.823Z,10.97
2019-04-07T01:35:54.895Z,11.01
2019-04-07T01:36:54.789Z,10.95
2019-04-07T01:37:54.991Z,10.97
2019-04-07T01:38:54.883Z,10.98
2019-04-07T01:39:54.894Z,10.97
2019-04-07T01:40:55.269Z,10.91
2019-04-07T01:41:54.712Z,11.00
2019-04-07T01:42:55.243Z,11.01
2019-04-07T01:43:54.756Z,11.01
2019-04-07T01:44:55.091Z,10.98
2019-04-07T01:45:54.670Z,10.97
2019-04-07T01:46:54.655Z,10.97
2019-04-07T01:47:54.944Z,11.01
2019-04-07T01:48:54.641Z,11.01
2019-04-07T01:49:54.685Z,10.94
2019-04-07T01:50:54.616Z,11.00
2019-04-07T01:51:54.599Z,10.97
2019-04-07T01:52:54.610Z,10.98
2019-04-07T01:53:54.745Z,11.01
2019-04-07T01:54:54.822Z,11.01
2019-04-07T01:55:54.562Z,10.93
2019-04-07T01:56:54.589Z,11.01
2019-04-07T01:57:54.540Z,10.98
2019-04-07T01:58:54.523Z,10.95
2019-04-07T01:59:55.634Z,11.00
2019-04-07T02:00:54.510Z,10.97
2019-04-07T02:01:54.497Z,10.97
2019-04-07T02:02:54.575Z,10.98
2019-04-07T02:03:54.478Z,11.00
2019-04-07T02:04:54.487Z,10.97
2019-04-07T02:05:59.310Z,10.90
2019-04-07T02:06:55.454Z,10.90
2019-04-07T02:07:54.426Z,10.95
2019-04-07T02:08:54.993Z,10.94
2019-04-07T02:09:54.550Z,10.91
2019-04-07T02:10:55.059Z,10.98
2019-04-07T02:11:55.071Z,10.94
2019-04-07T02:12:54.384Z,10.90
2019-04-07T02:13:54.723Z,10.93
2019-04-07T02:14:54.892Z,10.90
2019-04-07T02:15:54.906Z,10.95
2019-04-07T02:16:54.372Z,10.94
2019-04-07T02:17:54.352Z,10.97
2019-04-07T02:18:54.361Z,10.91
2019-04-07T02:19:54.955Z,10.93
2019-04-07T02:20:54.333Z,10.90
2019-04-07T02:21:54.595Z,10.90
2019-04-07T02:22:54.690Z,10.80
2019-04-07T02:23:54.842Z,10.91
2019-04-07T02:24:54.322Z,10.85
2019-04-07T02:25:54.309Z,10.87
2019-04-07T02:26:54.371Z,10.86
2019-04-07T02:27:54.554Z,10.85
2019-04-07T02:28:54.223Z,10.83
2019-04-07T02:29:54.228Z,10.85
2019-04-07T02:30:54.349Z,10.83
2019-04-07T02:31:54.250Z,10.79
2019-04-07T02:32:54.488Z,10.85
2019-04-07T02:33:54.471Z,10.83
2019-04-07T02:34:54.195Z,10.80
2019-04-07T02:35:54.145Z,10.80
2019-04-07T02:36:54.165Z,10.82
2019-04-07T02:37:54.729Z,10.85
2019-04-07T02:38:54.752Z,10.76
2019-04-07T02:39:54.922Z,10.72
2019-04-07T02:40:54.067Z,10.80
2019-04-07T02:41:54.803Z,10.78
2019-04-07T02:42:54.416Z,10.70
2019-04-07T02:43:54.039Z,10.72
2019-04-07T02:44:54.044Z,10.68
2019-04-07T02:45:54.028Z,10.75
2019-04-07T02:46:54.730Z,10.73
2019-04-07T02:47:54.008Z,10.68
2019-04-07T02:48:54.385Z,10.62
2019-04-07T02:49:54.133Z,10.68
2019-04-07T02:50:54.876Z,10.65
2019-04-07T02:51:54.225Z,10.62
2019-04-07T02:52:54.619Z,10.73
2019-04-07T02:53:53.924Z,10.65
2019-04-07T02:54:54.038Z,10.68
2019-04-07T02:55:55.010Z,10.68
2019-04-07T02:56:54.271Z,10.67
2019-04-07T02:57:54.177Z,10.54
2019-04-07T02:58:54.897Z,10.46
2019-04-07T02:59:54.391Z,10.55
2019-04-07T03:01:57.814Z,10.54
2019-04-07T03:02:58.100Z,10.57
2019-04-07T03:03:57.852Z,10.55
2019-04-07T03:04:58.500Z,10.43
2019-04-07T03:05:58.291Z,10.48
2019-04-07T03:06:58.704Z,10.52
2019-04-07T03:07:57.675Z,10.45
2019-04-07T03:08:57.661Z,10.41
2019-04-07T03:09:57.709Z,10.42
2019-04-07T03:10:57.645Z,10.38
2019-04-07T03:11:57.764Z,10.38
2019-04-07T03:12:58.702Z,10.39
2019-04-07T03:13:58.649Z,10.38
2019-04-07T03:14:58.472Z,10.28
2019-04-07T03:15:57.831Z,10.24
2019-04-07T03:16:57.864Z,10.30
2019-04-07T03:17:57.596Z,10.24
2019-04-07T03:18:57.989Z,10.34
2019-04-07T03:19:57.582Z,10.36
2019-04-07T03:20:57.526Z,10.31
2019-04-07T03:21:57.760Z,10.30
2019-04-07T03:22:57.503Z,10.26
2019-04-07T03:23:57.495Z,10.21
2019-04-07T03:24:58.259Z,10.12
2019-04-07T03:25:58.127Z,10.12
2019-04-07T03:26:57.650Z,10.17
2019-04-07T03:27:57.471Z,10.02
2019-04-07T03:28:58.020Z,10.08
2019-04-07T03:29:57.455Z,10.01
2019-04-07T03:30:59.209Z,9.96
2019-04-07T03:31:59.520Z,9.91
2019-04-07T03:32:58.625Z,9.73
2019-04-07T03:33:59.599Z,9.72
2019-04-07T03:34:58.166Z,9.70
2019-04-07T03:36:01.981Z,9.67
2019-04-07T03:37:19.293Z,9.67
2019-04-07T03:37:59.230Z,9.62
2019-04-07T03:38:57.881Z,9.70
2019-04-07T03:39:57.335Z,9.63
2019-04-07T03:40:57.330Z,9.65
2019-04-07T03:41:57.291Z,9.65
2019-04-07T03:42:57.411Z,9.65
2019-04-07T03:43:57.276Z,9.65
2019-04-07T03:44:57.282Z,9.67
2019-04-07T03:45:57.327Z,9.67
2019-04-07T03:46:57.249Z,9.73
2019-04-07T03:47:57.242Z,9.66
2019-04-07T03:48:57.945Z,9.69
2019-04-07T03:49:57.241Z,9.70
2019-04-07T03:50:57.216Z,9.67
2019-04-07T03:51:58.095Z,9.69
2019-04-07T03:52:57.171Z,9.69
2019-04-07T03:53:57.159Z,9.65
2019-04-07T03:54:57.279Z,9.72
2019-04-07T03:55:57.788Z,9.72
2019-04-07T03:56:57.125Z,9.80
2019-04-07T03:57:57.146Z,9.73
2019-04-07T03:58:57.866Z,9.70
2019-04-07T03:59:57.783Z,9.73
2019-04-07T04:00:57.082Z,9.73
2019-04-07T04:01:57.447Z,9.73
2019-04-07T04:02:57.086Z,9.67
2019-04-07T04:03:57.056Z,9.75
2019-04-07T04:04:57.649Z,9.77
2019-04-07T04:05:57.281Z,9.70
2019-04-07T04:06:57.041Z,9.73
2019-04-07T04:07:57.002Z,9.70
2019-04-07T04:08:56.994Z,9.73
2019-04-07T04:09:58.103Z,9.73
2019-04-07T04:10:58.020Z,9.77
2019-04-07T04:11:56.988Z,9.70
2019-04-07T04:12:56.980Z,9.63
2019-04-07T04:13:56.974Z,9.73
2019-04-07T04:14:57.040Z,9.73
2019-04-07T04:15:56.939Z,9.65
2019-04-07T04:16:57.828Z,9.69
2019-04-07T04:17:57.339Z,9.63
2019-04-07T04:18:56.938Z,9.60
2019-04-07T04:19:57.350Z,9.59
2019-04-07T04:20:57.261Z,9.48
2019-04-07T04:21:56.854Z,9.57
2019-04-07T04:22:57.202Z,9.55
2019-04-07T04:23:57.793Z,9.45
2019-04-07T04:24:57.652Z,9.50
2019-04-07T04:25:57.137Z,9.45
2019-04-07T04:26:57.081Z,9.54
2019-04-07T04:27:56.965Z,9.45
2019-04-07T04:28:56.774Z,9.40
2019-04-07T04:29:56.849Z,9.44
2019-04-07T04:30:57.604Z,9.40
2019-04-07T04:31:57.206Z,9.44
2019-04-07T04:32:56.757Z,9.40
2019-04-07T04:33:57.921Z,9.47
2019-04-07T04:34:57.515Z,9.41
2019-04-07T04:35:56.718Z,9.44
2019-04-07T04:36:56.686Z,9.40
2019-04-07T04:37:56.909Z,9.41
2019-04-07T04:38:56.710Z,9.41
2019-04-07T04:39:57.433Z,9.44
2019-04-07T04:40:56.912Z,9.44
2019-04-07T04:41:57.633Z,9.37
2019-04-07T04:42:56.920Z,9.37
2019-04-07T04:43:56.691Z,9.41
2019-04-07T04:44:56.632Z,9.41
2019-04-07T04:45:56.882Z,9.40
2019-04-07T04:46:56.576Z,9.45
2019-04-07T04:47:56.565Z,9.44
2019-04-07T04:48:56.783Z,9.42
2019-04-07T04:49:57.488Z,9.40
2019-04-07T04:50:56.616Z,9.41
2019-04-07T04:51:57.235Z,9.44
2019-04-07T04:52:56.559Z,9.45
2019-04-07T04:53:56.596Z,9.40
2019-04-07T04:54:57.134Z,9.44
2019-04-07T04:55:56.495Z,9.29
2019-04-07T04:56:56.930Z,9.33
2019-04-07T04:57:56.660Z,9.33
2019-04-07T04:58:56.638Z,9.29
2019-04-07T04:59:56.458Z,9.41
2019-04-07T05:00:56.566Z,9.37
2019-04-07T05:01:56.550Z,9.44
2019-04-07T05:02:57.193Z,9.41
2019-04-07T05:03:56.404Z,9.40
2019-04-07T05:04:57.403Z,9.37
2019-04-07T05:05:56.451Z,9.41
2019-04-07T05:06:57.045Z,9.36
2019-04-07T05:08:01.788Z,9.36
2019-04-07T05:08:57.765Z,9.30
2019-04-07T05:09:56.818Z,9.32
2019-04-07T05:10:56.557Z,9.30
2019-04-07T05:11:56.518Z,9.32
2019-04-07T05:12:56.306Z,9.30
2019-04-07T05:13:56.304Z,9.44
2019-04-07T05:14:56.266Z,9.40
2019-04-07T05:15:56.262Z,9.29
2019-04-07T05:16:56.264Z,9.26
2019-04-07T05:17:56.231Z,9.30
2019-04-07T05:18:56.244Z,9.30
2019-04-07T05:19:56.609Z,9.24
2019-04-07T05:20:56.359Z,9.29
2019-04-07T05:21:56.193Z,9.26
2019-04-07T05:22:56.183Z,9.40
2019-04-07T05:23:56.197Z,9.32
2019-04-07T05:24:56.649Z,9.32
2019-04-07T05:25:56.145Z,9.29
2019-04-07T05:26:56.160Z,9.36
2019-04-07T05:27:56.816Z,9.37
2019-04-07T05:28:56.112Z,9.27
2019-04-07T05:29:56.708Z,9.33
2019-04-07T05:30:56.881Z,9.41
2019-04-07T05:31:56.630Z,9.48
2019-04-07T05:32:56.828Z,9.40
2019-04-07T05:33:56.569Z,9.45
2019-04-07T05:34:56.708Z,9.50
2019-04-07T05:35:56.076Z,9.44
2019-04-07T05:36:56.154Z,9.47
2019-04-07T05:38:02.690Z,9.55
2019-04-07T05:38:57.486Z,9.55
2019-04-07T05:39:56.545Z,9.60
2019-04-07T05:40:56.404Z,9.59
2019-04-07T05:41:56.008Z,9.67
2019-04-07T05:42:55.965Z,9.66
2019-04-07T05:43:55.952Z,9.65
2019-04-07T05:44:56.080Z,9.73
2019-04-07T05:45:56.385Z,9.73
2019-04-07T05:46:56.108Z,9.73
2019-04-07T05:47:55.920Z,9.70
2019-04-07T05:48:56.537Z,9.70
2019-04-07T05:49:58.763Z,9.81
2019-04-07T05:50:58.868Z,9.75
2019-04-07T05:51:56.598Z,9.75
2019-04-07T05:52:56.532Z,9.83
2019-04-07T05:53:55.865Z,9.78
2019-04-07T05:54:56.275Z,9.78
2019-04-07T05:55:56.273Z,9.83
2019-04-07T05:56:58.605Z,9.94
2019-04-07T05:57:55.819Z,9.93
2019-04-07T05:58:55.951Z,9.91
2019-04-07T05:59:55.950Z,9.93
2019-04-07T06:00:56.838Z,9.98
2019-04-07T06:02:00.668Z,10.03
2019-04-07T06:02:57.043Z,10.01
2019-04-07T06:03:56.582Z,10.03
2019-04-07T06:04:58.495Z,10.05
2019-04-07T06:05:56.119Z,10.17
2019-04-07T06:06:56.362Z,10.06
2019-04-07T06:07:55.897Z,10.12
2019-04-07T06:08:55.667Z,10.10
2019-04-07T06:09:55.751Z,10.21
2019-04-07T06:11:00.183Z,10.14
2019-04-07T06:11:56.640Z,10.20
2019-04-07T06:12:56.432Z,10.27
2019-04-07T06:13:55.625Z,10.31
2019-04-07T06:14:56.344Z,10.31
2019-04-07T06:15:55.628Z,10.26
2019-04-07T06:16:55.913Z,10.30
2019-04-07T06:17:59.570Z,10.45
2019-04-07T06:18:56.593Z,10.41
2019-04-07T06:19:55.767Z,10.45
2019-04-07T06:20:56.365Z,10.57
2019-04-07T06:21:55.545Z,10.55
2019-04-07T06:22:55.513Z,10.58
2019-04-07T06:23:59.366Z,10.64
2019-04-07T06:24:56.009Z,10.65
2019-04-07T06:25:57.346Z,10.73
2019-04-07T06:26:55.488Z,10.67
2019-04-07T06:27:55.471Z,10.82
2019-04-07T06:28:58.512Z,10.86
2019-04-07T06:29:59.564Z,10.87
2019-04-07T06:30:57.303Z,10.91
2019-04-07T06:31:56.170Z,10.87
2019-04-07T06:32:55.452Z,11.01
2019-04-07T06:33:55.393Z,10.98
2019-04-07T06:34:55.536Z,11.08
2019-04-07T06:35:56.143Z,11.11
2019-04-07T06:36:56.436Z,11.08
2019-04-07T06:37:57.872Z,11.18
2019-04-07T06:38:56.333Z,11.15
2019-04-07T06:39:55.785Z,11.19
2019-04-07T06:40:57.781Z,11.28
2019-04-07T06:41:58.964Z,11.23
2019-04-07T06:42:55.734Z,11.34
2019-04-07T06:44:08.184Z,11.37
2019-04-07T06:44:59.464Z,11.37
2019-04-07T06:45:55.286Z,11.33
2019-04-07T06:46:57.930Z,11.40
2019-04-07T06:47:56.348Z,11.45
2019-04-07T06:48:55.243Z,11.41
2019-04-07T06:49:55.218Z,11.46
2019-04-07T06:50:58.386Z,11.55
2019-04-07T06:51:55.472Z,11.64
2019-04-07T06:52:55.186Z,11.55
2019-04-07T06:53:55.701Z,11.61
2019-04-07T06:54:56.285Z,11.67
2019-04-07T06:55:59.034Z,11.69
2019-04-07T06:56:55.518Z,11.70
2019-04-07T06:57:55.126Z,11.71
2019-04-07T06:58:55.684Z,11.73
2019-04-07T06:59:55.620Z,11.76
2019-04-07T07:00:56.811Z,11.74
2019-04-07T07:01:58.140Z,11.84
2019-04-07T07:02:55.380Z,11.88
2019-04-07T07:03:55.078Z,11.88
2019-04-07T07:04:55.182Z,12.04
2019-04-07T07:05:55.032Z,11.97
2019-04-07T07:06:55.695Z,12.03
2019-04-07T07:07:55.010Z,12.03
2019-04-07T07:08:56.620Z,12.07
2019-04-07T07:09:59.729Z,12.15
2019-04-07T07:10:56.316Z,12.17
2019-04-07T07:11:55.122Z,12.13
2019-04-07T07:12:59.629Z,12.23
2019-04-07T07:13:56.588Z,12.22
2019-04-07T07:14:55.099Z,12.23
2019-04-07T07:15:54.967Z,12.30
2019-04-07T07:16:55.452Z,12.33
2019-04-07T07:17:57.159Z,12.50
2019-04-07T07:18:56.085Z,12.54
2019-04-07T07:19:56.733Z,12.43
2019-04-07T07:20:55.660Z,12.47
2019-04-07T07:21:54.910Z,12.58
2019-04-07T07:22:55.044Z,12.68
2019-04-07T07:23:54.849Z,12.66
2019-04-07T07:24:57.681Z,12.76
2019-04-07T07:25:56.457Z,12.83
2019-04-07T07:26:57.737Z,12.72
2019-04-07T07:27:54.871Z,12.79
2019-04-07T07:28:55.893Z,12.87
2019-04-07T07:29:55.483Z,12.88
2019-04-07T07:30:54.955Z,12.93
2019-04-07T07:31:59.765Z,12.98
2019-04-07T07:32:56.433Z,13.02
2019-04-07T07:33:54.984Z,13.06
2019-04-07T07:34:55.264Z,13.11
2019-04-07T07:35:54.705Z,13.19
2019-04-07T07:36:56.554Z,13.24
2019-04-07T07:37:58.174Z,13.24
2019-04-07T07:39:00.604Z,13.27
2019-04-07T07:39:56.368Z,13.40
2019-04-07T07:40:54.669Z,13.40
2019-04-07T07:41:55.091Z,13.46
2019-04-07T07:42:56.690Z,13.49
2019-04-07T07:43:54.913Z,13.55
2019-04-07T07:44:54.627Z,13.65
2019-04-07T07:45:54.619Z,13.73
2019-04-07T07:46:55.353Z,13.68
2019-04-07T07:47:55.063Z,13.79
2019-04-07T07:48:58.993Z,13.79
2019-04-07T07:49:55.632Z,13.76
2019-04-07T07:50:54.702Z,13.82
2019-04-07T07:51:54.576Z,13.82
2019-04-07T07:52:54.807Z,13.91
2019-04-07T07:53:57.136Z,13.94
2019-04-07T07:54:55.180Z,14.03
2019-04-07T07:55:54.486Z,13.96
2019-04-07T07:56:54.498Z,14.05
2019-04-07T07:57:58.151Z,14.13
2019-04-07T07:58:55.056Z,14.16
2019-04-07T07:59:55.206Z,14.11
2019-04-07T08:00:54.561Z,14.27
2019-04-07T08:01:54.622Z,14.31
2019-04-07T08:02:54.710Z,14.26
2019-04-07T08:03:55.742Z,14.31
2019-04-07T08:04:56.725Z,14.37
2019-04-07T08:05:54.359Z,14.36
2019-04-07T08:06:54.528Z,14.44
2019-04-07T08:07:55.132Z,14.49
2019-04-07T08:09:05.824Z,14.51
2019-04-07T08:09:56.726Z,14.51
2019-04-07T08:10:58.578Z,14.51
2019-04-07T08:11:55.415Z,14.52
2019-04-07T08:12:54.283Z,14.58
2019-04-07T08:13:55.308Z,14.61
2019-04-07T08:14:57.224Z,14.55
2019-04-07T08:15:54.640Z,14.58
2019-04-07T08:16:54.418Z,14.64
2019-04-07T08:17:54.223Z,14.69
2019-04-07T08:18:54.241Z,14.79
2019-04-07T08:19:54.231Z,14.77
2019-04-07T08:20:54.224Z,14.77
2019-04-07T08:21:54.223Z,14.86
2019-04-07T08:22:54.171Z,14.86
2019-04-07T08:23:54.616Z,14.92
2019-04-07T08:24:54.602Z,14.86
2019-04-07T08:25:56.072Z,14.93
2019-04-07T08:26:56.460Z,14.86
2019-04-07T08:27:54.273Z,14.93
2019-04-07T08:28:54.746Z,14.97
2019-04-07T08:29:54.088Z,14.96
2019-04-07T08:30:54.431Z,15.04
2019-04-07T08:31:55.321Z,14.99
2019-04-07T08:32:57.656Z,15.07
2019-04-07T08:33:55.889Z,15.08
2019-04-07T08:34:54.765Z,15.11
2019-04-07T08:35:55.237Z,15.07
2019-04-07T08:36:54.144Z,15.22
2019-04-07T08:37:54.522Z,15.12
2019-04-07T08:38:55.844Z,15.22
2019-04-07T08:39:56.713Z,15.27
2019-04-07T08:40:54.975Z,15.20
2019-04-07T08:41:54.010Z,15.26
2019-04-07T08:42:53.976Z,15.29
2019-04-07T08:43:56.688Z,15.33
2019-04-07T08:44:57.230Z,15.35
2019-04-07T08:45:55.369Z,15.45
2019-04-07T08:46:54.136Z,15.47
2019-04-07T08:47:53.900Z,15.50
2019-04-07T08:48:54.689Z,15.54
2019-04-07T08:49:56.882Z,15.52
2019-04-07T08:50:57.256Z,15.56
2019-04-07T08:51:54.946Z,15.66
2019-04-07T08:52:53.867Z,15.70
2019-04-07T08:53:53.944Z,15.76
2019-04-07T08:54:53.834Z,15.73
2019-04-07T08:55:54.736Z,15.72
2019-04-07T08:56:54.205Z,15.70
2019-04-07T08:57:53.814Z,15.72
2019-04-07T08:58:54.412Z,15.72
2019-04-07T08:59:53.881Z,15.78
2019-04-07T09:00:53.982Z,15.72
2019-04-07T09:01:54.322Z,15.68
2019-04-07T09:03:01.605Z,15.84
2019-04-07T09:03:54.731Z,15.84
2019-04-07T09:04:53.702Z,15.78
2019-04-07T09:05:56.472Z,15.83
2019-04-07T09:06:53.825Z,15.80
2019-04-07T09:07:54.021Z,15.83
2019-04-07T09:08:54.263Z,15.83
2019-04-07T09:09:54.398Z,15.87
2019-04-07T09:10:53.842Z,15.87
2019-04-07T09:11:56.337Z,15.87
2019-04-07T09:12:54.358Z,15.88
2019-04-07T09:13:53.638Z,15.88
2019-04-07T09:14:53.591Z,15.93
2019-04-07T09:15:54.440Z,15.90
2019-04-07T09:16:56.123Z,15.91
2019-04-07T09:17:54.332Z,15.99
2019-04-07T09:19:00.516Z,16.02
2019-04-07T09:19:54.838Z,16.03
2019-04-07T09:20:53.526Z,16.02
2019-04-07T09:21:54.253Z,15.98
2019-04-07T09:22:56.109Z,16.14
2019-04-07T09:23:55.197Z,16.09
2019-04-07T09:24:53.675Z,16.18
2019-04-07T09:25:53.494Z,16.26
2019-04-07T09:26:53.479Z,16.22
2019-04-07T09:27:54.020Z,16.25
2019-04-07T09:28:55.737Z,16.34
2019-04-07T09:29:53.466Z,16.33
2019-04-07T09:30:53.643Z,16.40
2019-04-07T09:31:54.092Z,16.36
2019-04-07T09:32:53.390Z,16.33
2019-04-07T09:33:53.965Z,16.44
2019-04-07T09:34:55.855Z,16.43
2019-04-07T09:35:56.684Z,16.37
2019-04-07T09:36:54.445Z,16.34
2019-04-07T09:37:54.710Z,16.44
2019-04-07T09:38:57.030Z,16.43
2019-04-07T09:40:00.362Z,16.44
2019-04-07T09:40:54.301Z,16.49
2019-04-07T09:41:55.154Z,16.46
2019-04-07T09:42:57.377Z,16.46
2019-04-07T09:43:55.126Z,16.46
2019-04-07T09:44:53.801Z,16.54
2019-04-07T09:45:53.967Z,16.55
2019-04-07T09:46:53.240Z,16.58
2019-04-07T09:47:53.236Z,16.65
2019-04-07T09:48:53.360Z,16.76
2019-04-07T09:49:56.336Z,16.76
2019-04-07T09:50:55.448Z,16.77
2019-04-07T09:51:53.875Z,16.79
2019-04-07T09:52:53.167Z,16.77
2019-04-07T09:53:53.368Z,16.77
2019-04-07T09:54:55.480Z,16.77
2019-04-07T09:55:55.584Z,16.88
2019-04-07T09:56:53.246Z,16.88
2019-04-07T09:57:53.861Z,16.87
2019-04-07T09:58:53.542Z,16.87
2019-04-07T09:59:54.506Z,16.84
2019-04-07T10:00:55.516Z,16.88
2019-04-07T10:01:53.086Z,16.94
2019-04-07T10:03:02.290Z,16.92
2019-04-07T10:03:54.042Z,16.94
2019-04-07T10:04:53.070Z,16.91
2019-04-07T10:05:53.021Z,16.99
2019-04-07T10:06:53.012Z,16.98
2019-04-07T10:07:53.279Z,16.91
2019-04-07T10:08:53.316Z,17.02
2019-04-07T10:10:04.805Z,17.06
2019-04-07T10:10:54.791Z,17.10
2019-04-07T10:11:52.976Z,17.06
2019-04-07T10:12:52.944Z,17.09
2019-04-07T10:13:53.136Z,17.14
2019-04-07T10:14:53.120Z,17.13
2019-04-07T10:15:53.263Z,17.19
2019-04-07T10:16:53.252Z,17.16
2019-04-07T10:17:52.880Z,17.17
2019-04-07T10:18:53.284Z,17.31
2019-04-07T10:19:52.945Z,17.28
2019-04-07T10:20:52.849Z,17.27
2019-04-07T10:21:53.469Z,17.27
2019-04-07T10:22:52.861Z,17.32
2019-04-07T10:23:52.831Z,17.35
2019-04-07T10:24:53.570Z,17.34
2019-04-07T10:25:52.796Z,17.41
2019-04-07T10:26:53.539Z,17.41
2019-04-07T10:27:52.828Z,17.37
2019-04-07T10:28:53.198Z,17.34
2019-04-07T10:29:53.183Z,17.41
2019-04-07T10:30:52.931Z,17.46
2019-04-07T10:31:52.934Z,17.53
2019-04-07T10:32:52.718Z,17.46
2019-04-07T10:33:52.736Z,17.43
2019-04-07T10:34:52.695Z,17.46
2019-04-07T10:35:52.686Z,17.59
2019-04-07T10:36:52.756Z,17.62
2019-04-07T10:37:53.210Z,17.63
2019-04-07T10:38:52.650Z,17.63
2019-04-07T10:39:52.758Z,17.69
2019-04-07T10:40:52.701Z,17.72
2019-04-07T10:41:53.243Z,17.71
2019-04-07T10:42:55.316Z,17.84
2019-04-07T10:43:52.666Z,17.81
2019-04-07T10:44:52.597Z,17.86
2019-04-07T10:45:52.580Z,17.84
2019-04-07T10:46:52.559Z,17.90
2019-04-07T10:47:53.297Z,17.90
2019-04-07T10:48:52.565Z,17.93
2019-04-07T10:49:58.623Z,17.83
2019-04-07T10:50:53.565Z,17.87
2019-04-07T10:51:53.248Z,17.84
2019-04-07T10:52:52.529Z,17.86
2019-04-07T10:53:52.676Z,17.78
2019-04-07T10:54:52.495Z,17.78
2019-04-07T10:55:52.496Z,17.81
2019-04-07T10:56:52.457Z,17.83
2019-04-07T10:57:52.491Z,17.90
2019-04-07T10:58:52.821Z,17.88
2019-04-07T10:59:53.263Z,17.91
2019-04-07T11:00:52.673Z,17.94
2019-04-07T11:01:52.451Z,17.93
2019-04-07T11:02:55.425Z,17.88
2019-04-07T11:03:53.967Z,17.97
2019-04-07T11:04:52.808Z,17.97
2019-04-07T11:05:52.372Z,18.06
2019-04-07T11:06:52.368Z,17.99
2019-04-07T11:07:52.384Z,18.02
2019-04-07T11:08:52.329Z,18.03
2019-04-07T11:09:53.079Z,18.06
2019-04-07T11:10:53.216Z,18.05
2019-04-07T11:11:52.408Z,18.15
2019-04-07T11:12:52.518Z,18.15
2019-04-07T11:13:52.260Z,18.11
2019-04-07T11:14:52.253Z,18.20
2019-04-07T11:15:52.700Z,18.31
2019-04-07T11:16:52.496Z,18.27
2019-04-07T11:17:52.758Z,18.27
2019-04-07T11:18:53.028Z,18.21
2019-04-07T11:19:53.021Z,18.30
2019-04-07T11:20:52.182Z,18.30
2019-04-07T11:21:52.951Z,18.34
2019-04-07T11:22:52.949Z,18.26
2019-04-07T11:23:52.323Z,18.27
2019-04-07T11:24:52.725Z,18.30
2019-04-07T11:25:52.134Z,18.27
2019-04-07T11:26:52.721Z,18.34
2019-04-07T11:27:52.828Z,18.31
2019-04-07T11:28:52.489Z,18.28
2019-04-07T11:29:52.790Z,18.33
2019-04-07T11:30:52.162Z,18.33
2019-04-07T11:31:53.234Z,18.48
2019-04-07T11:32:52.543Z,18.51
2019-04-07T11:33:52.508Z,18.52
2019-04-07T11:34:53.016Z,18.51
2019-04-07T11:35:52.169Z,18.51
2019-04-07T11:36:52.784Z,18.56
2019-04-07T11:37:52.838Z,18.51
2019-04-07T11:38:52.743Z,18.46
2019-04-07T11:39:52.327Z,18.43
2019-04-07T11:40:52.415Z,18.42
2019-04-07T11:41:52.718Z,18.45
2019-04-07T11:42:52.366Z,18.52
2019-04-07T11:43:51.964Z,18.54
2019-04-07T11:44:51.924Z,18.58
2019-04-07T11:45:58.340Z,18.57
2019-04-07T11:46:53.039Z,18.54
2019-04-07T11:47:52.552Z,18.54
2019-04-07T11:48:51.897Z,18.52
2019-04-07T11:49:52.049Z,18.42
2019-04-07T11:50:52.212Z,18.51
2019-04-07T11:51:52.375Z,18.51
2019-04-07T11:52:52.626Z,18.48
2019-04-07T11:53:51.826Z,18.54
2019-04-07T11:54:52.126Z,18.57
2019-04-07T11:55:52.157Z,18.58
2019-04-07T11:56:52.363Z,18.67
2019-04-07T11:58:07.396Z,18.67
2019-04-07T11:58:53.098Z,18.71
2019-04-07T11:59:52.367Z,18.70
2019-04-07T12:00:52.572Z,18.68
2019-04-07T12:01:51.766Z,18.67
2019-04-07T12:02:53.320Z,18.66
2019-04-07T12:03:53.835Z,18.75
2019-04-07T12:04:51.772Z,18.88
2019-04-07T12:05:51.715Z,18.76
2019-04-07T12:06:52.571Z,18.79
2019-04-07T12:07:56.230Z,18.85
2019-04-07T12:08:53.371Z,18.85
2019-04-07T12:09:52.242Z,18.93
2019-04-07T12:10:58.667Z,18.88
2019-04-07T12:11:52.742Z,18.86
2019-04-07T12:12:52.676Z,18.97
2019-04-07T12:13:52.557Z,19.00
2019-04-07T12:14:53.476Z,19.09
2019-04-07T12:15:55.269Z,19.12
2019-04-07T12:16:52.415Z,19.15
2019-04-07T12:17:52.264Z,19.22
2019-04-07T12:18:53.273Z,19.20
2019-04-07T12:19:54.815Z,19.26
2019-04-07T12:20:52.949Z,19.30
2019-04-07T12:21:52.685Z,19.19
2019-04-07T12:22:51.521Z,19.17
2019-04-07T12:23:52.755Z,19.23
2019-04-07T12:24:51.566Z,19.15
2019-04-07T12:25:52.714Z,19.19
2019-04-07T12:26:51.829Z,19.20
2019-04-07T12:27:51.646Z,19.23
2019-04-07T12:28:52.367Z,19.24
2019-04-07T12:29:51.633Z,19.27
2019-04-07T12:30:52.868Z,19.39
2019-04-07T12:31:52.135Z,19.34
2019-04-07T12:32:51.781Z,19.34
2019-04-07T12:33:52.716Z,19.41
2019-04-07T12:34:51.400Z,19.47
2019-04-07T12:35:55.022Z,19.35
2019-04-07T12:36:51.348Z,19.41
2019-04-07T12:37:52.041Z,19.41
2019-04-07T12:38:52.270Z,19.37
2019-04-07T12:39:52.246Z,19.38
2019-04-07T12:40:56.385Z,19.38
2019-04-07T12:41:54.957Z,19.35
2019-04-07T12:42:51.349Z,19.39
2019-04-07T12:43:51.629Z,19.44
2019-04-07T12:44:51.265Z,19.53
2019-04-07T12:45:51.293Z,19.52
2019-04-07T12:46:51.267Z,19.53
2019-04-07T12:47:51.747Z,19.56
2019-04-07T12:48:51.412Z,19.63
2019-04-07T12:49:51.947Z,19.67
2019-04-07T12:50:52.264Z,19.67
2019-04-07T12:51:54.327Z,19.67
2019-04-07T12:52:51.872Z,19.67
2019-04-07T12:53:53.594Z,19.62
2019-04-07T12:54:51.485Z,19.60
2019-04-07T12:55:57.616Z,19.67
2019-04-07T12:56:52.445Z,19.63
2019-04-07T12:57:52.018Z,19.63
2019-04-07T12:58:51.656Z,19.64